MSC Jordan — HPMK — position and weather

sailwx.info

Track history (hours):
 
Tides and Currents Weather Stations Pressure Air Temp Water Temp Dewpoint Dewpoint Depression Visibility Wind Speed Wind Dir Waves Ship Positions

MSC Jordan

Last reported at 2016-Jul-24 07:26 UTC. Time now 2016-Jul-24 16:39 UTC.
Position N 39°16' W 009°51'.

Length 237 m; draft 8.4 m.

Type: Ship. MMSI: 355194000.

Date/timePositionNaut miles runAvg speedWind from/ knotsBaromVisibWave heightAir tempDewpointWater temp
2016-Jul-24 07:26N 39°16' W 009°51'1415.6
2016-Jul-24 06:33N 39°02' W 009°52'1615.4
2016-Jul-24 05:33N 38°47' W 009°52'1615.8
2016-Jul-24 04:34N 38°31' W 009°50'1615.7
2016-Jul-24 03:33N 38°15' W 009°52'1515.5
2016-Jul-24 02:34N 38°00' W 009°53'1615.7
2016-Jul-24 01:33N 37°44' W 009°53'1615.6
2016-Jul-24 00:33N 37°29' W 009°53'1514.7
2016-Jul-23 23:33N 37°14' W 009°53'1515.2
2016-Jul-23 22:33N 36°59' W 009°54'1615.5
2016-Jul-23 21:33N 36°43' W 009°55'1515.4
2016-Jul-23 20:33N 36°28' W 009°55'1515.2
2016-Jul-23 19:34N 36°13' W 009°56'1515.0
2016-Jul-23 18:33N 35°58' W 009°56'1815.1
2016-Jul-23 17:21N 35°40' W 009°57'1215.1
2016-Jul-23 16:33N 35°27' W 009°57'2115.2
2016-Jul-23 15:10N 35°06' W 009°58'20315.8
2016-Jul-23 02:20N 31°43' W 010°06'1215.2
2016-Jul-23 01:33N 31°31' W 010°05'1514.5
2016-Jul-23 00:33N 31°17' W 010°04'1414.1
2016-Jul-22 23:32N 31°03' W 010°02'1614.1
2016-Jul-22 22:26N 30°47' W 010°01'1413.7
2016-Jul-22 21:25N 30°34' W 009°57'1415.4
2016-Jul-22 20:31N 30°25' W 009°44'5 4.6
2016-Jul-22 19:26N 30°26' W 009°39'0 0.0
2016-Jul-22 18:04N 30°26' W 009°39'0 0.0
2016-Jul-22 02:15N 30°26' W 009°39'0 0.0
2016-Jul-21 04:23N 30°26' W 009°39'2 0.2
2016-Jul-20 16:33N 30°24' W 009°38'3 1.5
2016-Jul-20 14:33N 30°23' W 009°41'326 7.6
2016-Jul-18 19:34N 28°07' W 015°21'4 3.5
2016-Jul-18 18:32N 28°08' W 015°25'0 0.0
2016-Jul-18 17:32N 28°08' W 015°25'0 0.0
2016-Jul-18 16:32N 28°08' W 015°25'0 0.0
2016-Jul-18 15:32N 28°08' W 015°25'0 0.0
2016-Jul-18 14:32N 28°08' W 015°25'0 0.0
2016-Jul-18 13:32N 28°08' W 015°25'0 0.0
2016-Jul-18 12:32N 28°08' W 015°25'0 0.0
2016-Jul-18 11:32N 28°08' W 015°25'0 0.0
2016-Jul-18 10:32N 28°08' W 015°25'0 0.0
2016-Jul-18 09:32N 28°08' W 015°25'0 0.0
2016-Jul-18 08:32N 28°08' W 015°25'0 0.0
2016-Jul-18 07:32N 28°08' W 015°25'0 0.0
2016-Jul-18 06:32N 28°08' W 015°25'3 2.8
2016-Jul-18 05:34N 28°06' W 015°22'9 8.5
2016-Jul-18 04:33N 28°00' W 015°15'35716.8
2016-Jul-17 07:18N 22°22' W 017°22'  
Track history (hours):
 
Tides and Currents Weather Stations Pressure Air Temp Water Temp Dewpoint Dewpoint Depression Visibility Wind Speed Wind Dir Waves Ship Positions

MSC Jordan

Last reported at 2016-Jul-24 07:26 UTC. Time now 2016-Jul-24 16:39 UTC.
Position N 39°16' W 009°51'.

Length 237 m; draft 8.4 m.

Type: Ship. MMSI: 355194000.

Date/timePositionNaut miles runAvg speedWind from/ knotsBaromVisibWave heightAir tempDewpointWater temp
2016-Jul-24 07:26N 39°16' W 009°51'1415.6
2016-Jul-24 06:33N 39°02' W 009°52'1615.4
2016-Jul-24 05:33N 38°47' W 009°52'1615.8
2016-Jul-24 04:34N 38°31' W 009°50'1615.7
2016-Jul-24 03:33N 38°15' W 009°52'1515.5
2016-Jul-24 02:34N 38°00' W 009°53'1615.7
2016-Jul-24 01:33N 37°44' W 009°53'1615.6
2016-Jul-24 00:33N 37°29' W 009°53'1514.7
2016-Jul-23 23:33N 37°14' W 009°53'1515.2
2016-Jul-23 22:33N 36°59' W 009°54'1615.5
2016-Jul-23 21:33N 36°43' W 009°55'1515.4
2016-Jul-23 20:33N 36°28' W 009°55'1515.2
2016-Jul-23 19:34N 36°13' W 009°56'1515.0
2016-Jul-23 18:33N 35°58' W 009°56'1815.1
2016-Jul-23 17:21N 35°40' W 009°57'1215.1
2016-Jul-23 16:33N 35°27' W 009°57'2115.2
2016-Jul-23 15:10N 35°06' W 009°58'20315.8
2016-Jul-23 02:20N 31°43' W 010°06'1215.2
2016-Jul-23 01:33N 31°31' W 010°05'1514.5
2016-Jul-23 00:33N 31°17' W 010°04'1414.1
2016-Jul-22 23:32N 31°03' W 010°02'1614.1
2016-Jul-22 22:26N 30°47' W 010°01'1413.7
2016-Jul-22 21:25N 30°34' W 009°57'1415.4
2016-Jul-22 20:31N 30°25' W 009°44'5 4.6
2016-Jul-22 19:26N 30°26' W 009°39'0 0.0
2016-Jul-22 18:04N 30°26' W 009°39'0 0.0
2016-Jul-22 02:15N 30°26' W 009°39'0 0.0
2016-Jul-21 04:23N 30°26' W 009°39'2 0.2
2016-Jul-20 16:33N 30°24' W 009°38'3 1.5
2016-Jul-20 14:33N 30°23' W 009°41'326 7.6
2016-Jul-18 19:34N 28°07' W 015°21'4 3.5
2016-Jul-18 18:32N 28°08' W 015°25'0 0.0
2016-Jul-18 17:32N 28°08' W 015°25'0 0.0
2016-Jul-18 16:32N 28°08' W 015°25'0 0.0
2016-Jul-18 15:32N 28°08' W 015°25'0 0.0
2016-Jul-18 14:32N 28°08' W 015°25'0 0.0
2016-Jul-18 13:32N 28°08' W 015°25'0 0.0
2016-Jul-18 12:32N 28°08' W 015°25'0 0.0
2016-Jul-18 11:32N 28°08' W 015°25'0 0.0
2016-Jul-18 10:32N 28°08' W 015°25'0 0.0
2016-Jul-18 09:32N 28°08' W 015°25'0 0.0
2016-Jul-18 08:32N 28°08' W 015°25'0 0.0
2016-Jul-18 07:32N 28°08' W 015°25'0 0.0
2016-Jul-18 06:32N 28°08' W 015°25'3 2.8
2016-Jul-18 05:34N 28°06' W 015°22'9 8.5
2016-Jul-18 04:33N 28°00' W 015°15'35716.8
2016-Jul-17 07:18N 22°22' W 017°22'  

Dump ship's entire track history